createdAt,value
2022-08-19T00:00:28.166Z,20.81999969
2022-08-19T00:02:24.973Z,20.79999924
2022-08-19T00:03:26.741Z,20.78000069
2022-08-19T00:04:22.714Z,20.76000023
2022-08-19T00:05:26.438Z,20.75
2022-08-19T00:07:26.391Z,20.70999908
2022-08-19T00:08:26.961Z,20.67000008
2022-08-19T00:09:22.857Z,20.67000008
2022-08-19T00:10:22.814Z,20.65999985
2022-08-19T00:12:29.964Z,20.63999939
2022-08-19T00:13:25.932Z,20.62000084
2022-08-19T00:14:27.750Z,20.62999916
2022-08-19T00:15:23.247Z,20.62000084
2022-08-19T00:16:26.585Z,20.62999916
2022-08-19T00:17:21.735Z,20.62999916
2022-08-19T00:18:22.151Z,20.61000061
2022-08-19T00:19:17.509Z,20.60000038
2022-08-19T00:20:17.067Z,20.59000015
2022-08-19T00:22:12.875Z,20.56999969
2022-08-19T00:23:09.105Z,20.54999924
2022-08-19T00:24:11.992Z,20.54999924
2022-08-19T00:25:05.393Z,20.54000092
2022-08-19T00:27:25.604Z,20.54999924
2022-08-19T00:27:26.098Z,20.54999924
2022-08-19T00:27:26.206Z,20.54999924
2022-08-19T00:28:18.053Z,20.57999992
2022-08-19T00:29:13.481Z,20.62999916
2022-08-19T00:30:15.897Z,20.62999916
2022-08-19T00:32:24.295Z,20.62000084
2022-08-19T00:33:22.689Z,20.60000038
2022-08-19T00:34:19.151Z,20.60000038
2022-08-19T00:36:46.210Z,20.72999954
2022-08-19T00:37:46.610Z,20.80999947
2022-08-19T00:38:50.543Z,20.84000015
2022-08-19T00:39:49.156Z,20.79999924
2022-08-19T00:41:52.741Z,20.72999954
2022-08-19T00:42:53.324Z,20.68000031
2022-08-19T00:43:47.887Z,20.62999916
2022-08-19T00:44:47.122Z,20.60000038
2022-08-19T00:46:44.522Z,20.54000092
2022-08-19T00:47:39.365Z,20.51000023
2022-08-19T00:48:41.157Z,20.5
2022-08-19T00:49:33.245Z,20.5
2022-08-19T00:50:51.953Z,20.5
2022-08-19T00:50:52.094Z,20.5
2022-08-19T00:52:38.907Z,20.53000069
2022-08-19T00:53:40.745Z,20.52000046
2022-08-19T00:54:39.865Z,20.5
2022-08-19T00:56:52.210Z,20.46999931
2022-08-19T00:57:52.726Z,20.45999908
2022-08-19T00:58:47.126Z,20.45000076
2022-08-19T00:59:58.739Z,20.40999985
2022-08-19T01:00:01.079Z,20.40999985
2022-08-19T01:00:02.671Z,20.40999985
2022-08-19T01:00:48.499Z,20.45000076
2022-08-19T01:01:43.814Z,20.47999954
2022-08-19T01:02:46.983Z,20.47999954
2022-08-19T01:03:57.127Z,20.46999931
2022-08-19T01:03:58.098Z,20.46999931
2022-08-19T01:03:58.185Z,20.46999931
2022-08-19T01:04:44.834Z,20.46999931
2022-08-19T01:05:39.565Z,20.51000023
2022-08-19T01:07:38.495Z,20.47999954
2022-08-19T01:08:44.071Z,20.45000076
2022-08-19T01:09:39.253Z,20.40999985
2022-08-19T01:10:38.881Z,20.40999985
2022-08-19T01:11:38.993Z,20.39999962
2022-08-19T01:12:40.641Z,20.37000084
2022-08-19T01:13:48.993Z,20.32999992
2022-08-19T01:13:48.993Z,20.32999992
2022-08-19T01:13:49.830Z,20.32999992
2022-08-19T01:15:32.130Z,20.36000061
2022-08-19T01:16:57.996Z,20.53000069
2022-08-19T01:18:01.264Z,20.54000092
2022-08-19T01:19:04.925Z,20.5
2022-08-19T01:20:02.137Z,20.45999908
2022-08-19T01:21:04.103Z,20.45999908
2022-08-19T01:21:56.660Z,20.40999985
2022-08-19T01:22:57.985Z,20.37999916
2022-08-19T01:24:00.935Z,20.34000015
2022-08-19T01:25:02.121Z,20.30999947
2022-08-19T01:26:59.400Z,20.29000092
2022-08-19T01:28:02.131Z,20.26000023
2022-08-19T01:28:11.171Z,20.26000023
2022-08-19T01:28:11.189Z,20.26000023
2022-08-19T01:28:59.680Z,20.27000046
2022-08-19T01:29:58.711Z,20.29000092
2022-08-19T01:31:55.239Z,20.29999924
2022-08-19T01:32:50.616Z,20.28000069
2022-08-19T01:33:54.867Z,20.25
2022-08-19T01:34:56.702Z,20.20999908
2022-08-19T01:36:03.350Z,20.23999977
2022-08-19T01:37:01.211Z,20.21999931
2022-08-19T01:38:01.892Z,20.20000076
2022-08-19T01:39:04.497Z,20.17000008
2022-08-19T01:40:09.418Z,20.15999985
2022-08-19T01:42:00.078Z,20.18000031
2022-08-19T01:42:55.693Z,20.18000031
2022-08-19T01:44:09.852Z,20.15999985
2022-08-19T01:44:13.280Z,20.15999985
2022-08-19T01:44:54.901Z,20.18000031
2022-08-19T01:46:49.440Z,20.22999954
2022-08-19T01:47:55.324Z,20.20000076
2022-08-19T01:48:01.277Z,20.20000076
2022-08-19T01:48:01.512Z,20.20000076
2022-08-19T01:48:47.627Z,20.20999908
2022-08-19T01:49:44.010Z,20.23999977
2022-08-19T01:50:41.968Z,20.23999977
2022-08-19T01:52:37.920Z,20.18000031
2022-08-19T01:53:40.385Z,20.14999962
2022-08-19T01:54:32.948Z,20.12000084
2022-08-19T01:55:34.944Z,20.11000061
2022-08-19T01:56:29.863Z,20.12000084
2022-08-19T01:57:34.573Z,20.09000015
2022-08-19T01:59:20.574Z,20.13999939
2022-08-19T02:00:00.892Z,20.18000031
2022-08-19T02:02:05.393Z,20.19000053
2022-08-19T02:03:04.352Z,20.17000008
2022-08-19T02:04:02.742Z,20.12000084
2022-08-19T02:05:03.742Z,20.09000015
2022-08-19T02:06:58.773Z,20.06999969
2022-08-19T02:07:59.051Z,20.03000069
2022-08-19T02:08:58.211Z,20.01000023
2022-08-19T02:10:00.218Z,19.96999931
2022-08-19T02:10:58.362Z,20
2022-08-19T02:11:53.589Z,20.01000023
2022-08-19T02:12:57.899Z,20.01000023
2022-08-19T02:13:55.826Z,20
2022-08-19T02:14:55.602Z,19.98999977
2022-08-19T02:15:51.867Z,20
2022-08-19T02:16:54.406Z,19.98999977
2022-08-19T02:17:49.631Z,19.95999908
2022-08-19T02:18:49.883Z,19.95999908
2022-08-19T02:19:46.339Z,19.94000053
2022-08-19T02:20:50.126Z,19.94000053
2022-08-19T02:21:44.357Z,19.94000053
2022-08-19T02:22:41.974Z,19.93000031
2022-08-19T02:23:45.412Z,19.88999939
2022-08-19T02:24:40.551Z,19.87000084
2022-08-19T02:25:45.421Z,19.87000084
2022-08-19T02:27:47.457Z,19.86000061
2022-08-19T02:28:46.533Z,19.85000038
2022-08-19T02:29:44.886Z,19.85000038
2022-08-19T02:30:49.238Z,19.87000084
2022-08-19T02:31:41.694Z,19.87999916
2022-08-19T02:32:48.697Z,19.87000084
2022-08-19T02:33:41.252Z,19.86000061
2022-08-19T02:35:14.210Z,19.86000061
2022-08-19T02:36:58.756Z,19.94000053
2022-08-19T02:37:59.297Z,19.93000031
2022-08-19T02:39:03.486Z,19.93000031
2022-08-19T02:40:12.388Z,19.90999985
2022-08-19T02:40:12.676Z,19.90999985
2022-08-19T02:41:04.614Z,19.93000031
2022-08-19T02:42:07.306Z,19.93000031
2022-08-19T02:43:09.788Z,19.92000008
2022-08-19T02:44:29.050Z,19.88999939
2022-08-19T02:44:30.529Z,19.88999939
2022-08-19T02:44:30.561Z,19.88999939
2022-08-19T02:44:41.598Z,19.88999939
2022-08-19T02:45:40.514Z,19.94000053
2022-08-19T02:46:36.090Z,19.96999931
2022-08-19T02:47:40.243Z,19.95000076
2022-08-19T02:48:35.632Z,19.92000008
2022-08-19T02:49:36.725Z,19.89999962
2022-08-19T02:50:34.889Z,19.87999916
2022-08-19T02:51:38.628Z,19.86000061
2022-08-19T02:52:32.945Z,19.82999992
2022-08-19T02:53:31.953Z,19.81999969
2022-08-19T02:54:30.326Z,19.80999947
2022-08-19T02:55:31.725Z,19.79000092
2022-08-19T02:55:46.171Z,19.79000092
2022-08-19T02:55:46.315Z,19.79000092
2022-08-19T02:56:35.260Z,19.82999992
2022-08-19T02:57:29.952Z,19.86000061
2022-08-19T02:58:33.904Z,19.86000061
2022-08-19T02:59:28.176Z,19.86000061
2022-08-19T03:00:30.337Z,19.86000061
2022-08-19T03:01:23.111Z,19.87000084
2022-08-19T03:02:32.371Z,19.85000038
2022-08-19T03:03:27.559Z,19.81999969
2022-08-19T03:04:33.432Z,19.79999924
2022-08-19T03:05:46.854Z,19.79000092
2022-08-19T03:05:48.101Z,19.79000092
2022-08-19T03:05:48.382Z,19.79000092
2022-08-19T03:06:32.428Z,19.84000015
2022-08-19T03:07:29.991Z,19.85000038
2022-08-19T03:08:32.689Z,19.84000015
2022-08-19T03:09:28.752Z,19.82999992
2022-08-19T03:10:31.738Z,19.82999992
2022-08-19T03:12:27.493Z,19.80999947
2022-08-19T03:13:25.516Z,19.79999924
2022-08-19T03:14:25.739Z,19.78000069
2022-08-19T03:15:21.044Z,19.77000046
2022-08-19T03:17:22.811Z,19.88999939
2022-08-19T03:18:08.794Z,19.93000031
2022-08-19T03:19:06.570Z,19.95000076
2022-08-19T03:20:08.263Z,19.93000031
2022-08-19T03:22:02.885Z,19.87999916
2022-08-19T03:22:59.464Z,19.85000038
2022-08-19T03:23:59.812Z,19.80999947
2022-08-19T03:25:06.479Z,19.79000092
2022-08-19T03:27:08.152Z,19.79000092
2022-08-19T03:28:06.206Z,19.77000046
2022-08-19T03:29:02.522Z,19.76000023
2022-08-19T03:30:03.214Z,19.73999977
2022-08-19T03:30:59.858Z,19.75
2022-08-19T03:32:00.644Z,19.75
2022-08-19T03:32:57.348Z,19.72999954
2022-08-19T03:33:54.971Z,19.71999931
2022-08-19T03:34:49.417Z,19.71999931
2022-08-19T03:35:48.797Z,19.71999931
2022-08-19T03:37:52.893Z,19.68000031
2022-08-19T03:38:47.007Z,19.65999985
2022-08-19T03:40:48.883Z,19.67000008
2022-08-19T03:41:48.784Z,19.68000031
2022-08-19T03:42:49.553Z,19.68000031
2022-08-19T03:43:45.802Z,19.67000008
2022-08-19T03:44:44.675Z,19.64999962
2022-08-19T03:45:39.933Z,19.64999962
2022-08-19T03:47:40.394Z,19.63999939
2022-08-19T03:48:32.970Z,19.64999962
2022-08-19T03:49:33.639Z,19.67000008
2022-08-19T03:50:30.342Z,19.65999985
2022-08-19T03:51:31.711Z,19.67000008
2022-08-19T03:52:26.924Z,19.64999962
2022-08-19T03:53:25.526Z,19.63999939
2022-08-19T03:54:24.474Z,19.62999916
2022-08-19T03:55:20.006Z,19.61000061
2022-08-19T03:59:22.413Z,19.93000031
2022-08-19T04:00:13.529Z,19.95999908
2022-08-19T04:00:13.805Z,19.95999908
2022-08-19T04:01:07.479Z,20
2022-08-19T04:02:04.706Z,19.98999977
2022-08-19T04:03:12.460Z,19.95999908
2022-08-19T04:04:07.853Z,19.90999985
2022-08-19T04:05:08.535Z,19.86000061
2022-08-19T04:07:06.930Z,19.79999924
2022-08-19T04:08:13.777Z,19.78000069
2022-08-19T04:09:09.881Z,19.76000023
2022-08-19T04:10:05.026Z,19.76000023
2022-08-19T04:11:04.345Z,19.76000023
2022-08-19T04:12:00.696Z,19.75
2022-08-19T04:13:06.637Z,19.72999954
2022-08-19T04:14:04.800Z,19.70000076
2022-08-19T04:15:09.919Z,19.67000008
2022-08-19T04:16:02.877Z,19.67000008
2022-08-19T04:17:00.802Z,19.65999985
2022-08-19T04:18:00.269Z,19.62999916
2022-08-19T04:18:56.889Z,19.62000084
2022-08-19T04:19:59.847Z,19.59000015
2022-08-19T04:20:52.645Z,19.60000038
2022-08-19T04:21:54.365Z,19.61000061
2022-08-19T04:22:46.791Z,19.60000038
2022-08-19T04:23:45.942Z,19.60000038
2022-08-19T04:24:45.485Z,19.59000015
2022-08-19T04:25:45.756Z,19.59000015
2022-08-19T04:27:42.388Z,19.59000015
2022-08-19T04:28:45.300Z,19.57999992
2022-08-19T04:29:38.803Z,19.56999969
2022-08-19T04:30:41.185Z,19.57999992
2022-08-19T04:32:24.612Z,19.64999962
2022-08-19T04:33:04.433Z,19.70999908
2022-08-19T04:34:01.450Z,19.73999977
2022-08-19T04:35:16.787Z,19.73999977
2022-08-19T04:35:16.823Z,19.73999977
2022-08-19T04:35:17.527Z,19.73999977
2022-08-19T04:36:00.332Z,19.75
2022-08-19T04:38:00.333Z,19.78000069
2022-08-19T04:38:56.677Z,19.73999977
2022-08-19T04:39:58.713Z,19.72999954
2022-08-19T04:40:02.421Z,19.72999954
2022-08-19T04:40:56.611Z,19.70999908
2022-08-19T04:42:52.256Z,19.70000076
2022-08-19T04:43:47.261Z,19.68000031
2022-08-19T04:44:49.036Z,19.65999985
2022-08-19T04:45:44.184Z,19.64999962
2022-08-19T04:46:51.152Z,19.65999985
2022-08-19T04:46:51.481Z,19.65999985
2022-08-19T04:47:48.230Z,19.64999962
2022-08-19T04:47:58.292Z,19.64999962
2022-08-19T04:47:58.754Z,19.64999962
2022-08-19T04:48:49.199Z,19.70000076
2022-08-19T04:48:49.405Z,19.70000076
2022-08-19T04:48:49.732Z,19.70000076
2022-08-19T04:49:39.963Z,19.78000069
2022-08-19T04:50:34.441Z,19.81999969
2022-08-19T04:51:36.353Z,19.82999992
2022-08-19T04:52:31.212Z,19.79999924
2022-08-19T04:53:34.675Z,19.78000069
2022-08-19T04:53:38.034Z,19.78000069
2022-08-19T04:54:37.687Z,19.76000023
2022-08-19T04:54:39.387Z,19.76000023
2022-08-19T04:55:27.723Z,19.76000023
2022-08-19T04:56:22.941Z,19.79999924
2022-08-19T04:57:26.145Z,19.78000069
2022-08-19T04:58:18.674Z,19.76000023
2022-08-19T04:59:18.706Z,19.72999954
2022-08-19T05:00:14.013Z,19.69000053
2022-08-19T05:02:08.675Z,19.67000008
2022-08-19T05:03:07.733Z,19.64999962
2022-08-19T05:04:02.411Z,19.62999916
2022-08-19T05:05:02.131Z,19.61000061
2022-08-19T05:05:57.349Z,19.61000061
2022-08-19T05:07:52.954Z,19.57999992
2022-08-19T05:08:55.250Z,19.57999992
2022-08-19T05:09:57.984Z,19.56999969
2022-08-19T05:09:58.621Z,19.56999969
2022-08-19T05:09:59.210Z,19.56999969
2022-08-19T05:11:48.024Z,19.70000076
2022-08-19T05:12:36.149Z,19.72999954
2022-08-19T05:13:35.291Z,19.72999954
2022-08-19T05:14:36.828Z,19.70000076
2022-08-19T05:15:36.201Z,19.67000008
2022-08-19T05:16:37.238Z,19.67000008
2022-08-19T05:17:38.342Z,19.63999939
2022-08-19T05:17:39.369Z,19.63999939
2022-08-19T05:18:34.958Z,19.64999962
2022-08-19T05:19:33.630Z,19.64999962
2022-08-19T05:20:36.639Z,19.64999962
2022-08-19T05:21:35.323Z,19.65999985
2022-08-19T05:22:40.868Z,19.63999939
2022-08-19T05:23:35.432Z,19.63999939
2022-08-19T05:24:51.424Z,19.63999939
2022-08-19T05:25:09.287Z,19.63999939
2022-08-19T05:25:11.209Z,19.63999939
2022-08-19T05:25:40.790Z,19.67000008
2022-08-19T05:26:37.135Z,19.73999977
2022-08-19T05:27:39.337Z,19.73999977
2022-08-19T05:28:35.697Z,19.73999977
2022-08-19T05:29:36.777Z,19.72999954
2022-08-19T05:30:46.483Z,19.70999908
2022-08-19T05:30:47.172Z,19.70999908
2022-08-19T05:30:47.445Z,19.70999908
2022-08-19T05:31:34.827Z,19.75
2022-08-19T05:32:35.371Z,19.78000069
2022-08-19T05:33:32.181Z,19.79000092
2022-08-19T05:34:32.733Z,19.78000069
2022-08-19T05:35:30.055Z,19.77000046
2022-08-19T05:36:33.596Z,19.79000092
2022-08-19T05:37:30.261Z,19.78000069
2022-08-19T05:38:33.752Z,19.77000046
2022-08-19T05:39:27.975Z,19.77000046
2022-08-19T05:40:30.211Z,19.79000092
2022-08-19T05:41:27.913Z,19.82999992
2022-08-19T05:42:32.671Z,19.82999992
2022-08-19T05:43:29.407Z,19.79999924
2022-08-19T05:44:33.514Z,19.79999924
2022-08-19T05:45:29.974Z,19.77000046
2022-08-19T05:47:27.704Z,19.77000046
2022-08-19T05:48:31.541Z,19.76000023
2022-08-19T05:49:35.326Z,19.73999977
2022-08-19T05:50:29.723Z,19.73999977
2022-08-19T05:51:33.348Z,19.76000023
2022-08-19T05:52:27.793Z,19.76000023
2022-08-19T05:53:33.558Z,19.76000023
2022-08-19T05:54:29.223Z,19.76000023
2022-08-19T05:55:33.262Z,19.77000046
2022-08-19T05:57:35.029Z,19.79000092
2022-08-19T05:59:20.031Z,19.84000015
2022-08-19T05:59:59.350Z,19.87999916
2022-08-19T06:00:57.470Z,19.92000008
2022-08-19T06:02:53.055Z,19.93000031
2022-08-19T06:03:52.982Z,19.92000008
2022-08-19T06:04:48.379Z,19.90999985
2022-08-19T06:05:52.123Z,19.90999985
2022-08-19T06:07:43.237Z,19.93000031
2022-08-19T06:08:38.030Z,19.93000031
2022-08-19T06:09:37.656Z,19.93000031
2022-08-19T06:10:32.987Z,19.92000008
2022-08-19T06:12:27.345Z,19.93000031
2022-08-19T06:13:29.033Z,19.92000008
2022-08-19T06:14:27.790Z,19.93000031
2022-08-19T06:15:25.694Z,19.95999908
2022-08-19T06:16:25.039Z,20
2022-08-19T06:17:21.802Z,20.01000023
2022-08-19T06:18:23.913Z,20.02000046
2022-08-19T06:19:16.565Z,20.04999924
2022-08-19T06:20:15.887Z,20.06999969
2022-08-19T06:22:11.781Z,20.11000061
2022-08-19T06:23:06.545Z,20.12999916
2022-08-19T06:24:08.788Z,20.13999939
2022-08-19T06:25:01.025Z,20.17000008
2022-08-19T06:26:03.297Z,20.19000053
2022-08-19T06:28:14.629Z,20.26000023
2022-08-19T06:28:15.135Z,20.26000023
2022-08-19T06:28:16.111Z,20.26000023
2022-08-19T06:28:57.000Z,20.30999947
2022-08-19T06:29:51.354Z,20.37999916
2022-08-19T06:30:52.917Z,20.40999985
2022-08-19T06:32:47.858Z,20.45000076
2022-08-19T06:33:43.237Z,20.45999908
2022-08-19T06:34:45.901Z,20.45999908
2022-08-19T06:35:40.244Z,20.45999908
2022-08-19T06:37:14.163Z,20.53000069
2022-08-19T06:38:51.930Z,20.69000053
2022-08-19T06:39:32.377Z,20.76000023
2022-08-19T06:40:28.941Z,20.77000046
2022-08-19T06:41:29.481Z,20.75
2022-08-19T06:42:25.717Z,20.69000053
2022-08-19T06:43:28.144Z,20.64999962
2022-08-19T06:44:20.147Z,20.64999962
2022-08-19T06:45:19.179Z,20.63999939
2022-08-19T06:45:24.925Z,20.63999939
2022-08-19T06:45:35.472Z,20.63999939
2022-08-19T06:47:14.735Z,20.69000053
2022-08-19T06:47:23.732Z,20.69000053
2022-08-19T06:47:28.459Z,20.69000053
2022-08-19T06:48:13.262Z,20.71999931
2022-08-19T06:49:08.051Z,20.76000023
2022-08-19T06:50:07.450Z,20.75
2022-08-19T06:51:02.615Z,20.71999931
2022-08-19T06:51:08.740Z,20.71999931
2022-08-19T06:52:01.978Z,20.71999931
2022-08-19T06:52:57.257Z,20.70000076
2022-08-19T06:53:55.903Z,20.69000053
2022-08-19T06:54:56.341Z,20.65999985
2022-08-19T06:54:56.590Z,20.65999985
2022-08-19T06:55:50.177Z,20.65999985
2022-08-19T06:57:44.045Z,20.69000053
2022-08-19T06:58:39.307Z,20.70000076
2022-08-19T06:59:40.902Z,20.65999985
2022-08-19T07:00:33.534Z,20.67000008
2022-08-19T07:02:27.032Z,20.69000053
2022-08-19T07:03:28.907Z,20.70000076
2022-08-19T07:04:26.570Z,20.71999931
2022-08-19T07:05:18.621Z,20.76000023
2022-08-19T07:07:19.859Z,20.80999947
2022-08-19T07:07:20.014Z,20.80999947
2022-08-19T07:08:11.211Z,20.87000084
2022-08-19T07:09:10.628Z,20.89999962
2022-08-19T07:10:07.366Z,20.87999916
2022-08-19T07:11:09.258Z,20.88999939
2022-08-19T07:11:10.799Z,20.88999939
2022-08-19T07:12:58.742Z,20.92000008
2022-08-19T07:14:00.697Z,20.94000053
2022-08-19T07:14:53.028Z,20.94000053
2022-08-19T07:15:52.495Z,20.94000053
2022-08-19T07:17:50.131Z,20.94000053
2022-08-19T07:18:46.987Z,20.95999908
2022-08-19T07:19:39.639Z,20.95999908
2022-08-19T07:20:41.913Z,20.97999954
2022-08-19T07:21:34.225Z,21
2022-08-19T07:22:33.858Z,21.03000069
2022-08-19T07:23:30.045Z,21.05999947
2022-08-19T07:24:26.549Z,21.07999992
2022-08-19T07:25:32.058Z,21.10000038
2022-08-19T07:25:32.174Z,21.10000038
2022-08-19T07:26:27.804Z,21.12000084
2022-08-19T07:26:28.025Z,21.12000084
2022-08-19T07:27:25.453Z,21.17000008
2022-08-19T07:28:24.264Z,21.20999908
2022-08-19T07:28:24.813Z,21.20999908
2022-08-19T07:29:17.725Z,21.23999977
2022-08-19T07:30:13.623Z,21.25
2022-08-19T07:31:15.316Z,21.28000069
2022-08-19T07:32:11.659Z,21.31999969
2022-08-19T07:32:13.661Z,21.31999969
2022-08-19T07:33:11.225Z,21.32999992
2022-08-19T07:34:03.654Z,21.34000015
2022-08-19T07:35:07.560Z,21.36000061
2022-08-19T07:36:00.093Z,21.35000038
2022-08-19T07:37:55.712Z,21.37999916
2022-08-19T07:38:54.908Z,21.37999916
2022-08-19T07:39:50.354Z,21.35000038
2022-08-19T07:40:52.302Z,21.35000038
2022-08-19T07:43:34.944Z,21.75
2022-08-19T07:43:35.032Z,21.75
2022-08-19T07:45:11.971Z,22.10000038
2022-08-19T07:45:51.265Z,22.14999962
2022-08-19T07:46:49.272Z,22.13999939
2022-08-19T07:47:51.256Z,22.09000015
2022-08-19T07:48:42.664Z,22.05999947
2022-08-19T07:49:41.670Z,22
2022-08-19T07:50:36.871Z,21.95000076
2022-08-19T07:51:36.704Z,21.89999962
2022-08-19T07:52:29.593Z,21.86000061
2022-08-19T07:53:28.702Z,21.86000061
2022-08-19T07:54:23.983Z,21.84000015
2022-08-19T07:55:42.171Z,21.81999969
2022-08-19T07:55:42.549Z,21.81999969
2022-08-19T07:56:20.392Z,21.79999924
2022-08-19T07:57:15.430Z,21.84000015
2022-08-19T07:58:14.603Z,21.84000015
2022-08-19T07:59:12.191Z,21.85000038
2022-08-19T08:00:06.314Z,21.84000015
2022-08-19T08:01:05.348Z,21.84000015
2022-08-19T08:03:01.681Z,21.85000038
2022-08-19T08:03:54.043Z,21.87000084
2022-08-19T08:04:53.198Z,21.87999916
2022-08-19T08:05:47.579Z,21.88999939
2022-08-19T08:06:44.273Z,21.86000061
2022-08-19T08:07:46.202Z,21.82999992
2022-08-19T08:08:37.285Z,21.84000015
2022-08-19T08:08:44.370Z,21.84000015
2022-08-19T08:08:48.255Z,21.84000015
2022-08-19T08:09:39.471Z,21.87000084
2022-08-19T08:10:31.288Z,21.89999962
2022-08-19T08:12:34.180Z,21.90999985
2022-08-19T08:12:34.599Z,21.90999985
2022-08-19T08:13:25.442Z,21.94000053
2022-08-19T08:14:29.030Z,21.96999931
2022-08-19T08:14:29.247Z,21.96999931
2022-08-19T08:14:35.074Z,21.96999931
2022-08-19T08:15:20.066Z,22.01000023
2022-08-19T08:15:25.207Z,22.01000023
2022-08-19T08:16:17.714Z,22.05999947
2022-08-19T08:17:13.184Z,22.12000084
2022-08-19T08:18:12.138Z,22.19000053
2022-08-19T08:19:12.643Z,22.20999908
2022-08-19T08:19:18.222Z,22.20999908
2022-08-19T08:20:05.431Z,22.27000046
2022-08-19T08:21:07.787Z,22.30999947
2022-08-19T08:23:02.874Z,22.39999962
2022-08-19T08:23:56.185Z,22.45999908
2022-08-19T08:24:55.684Z,22.52000046
2022-08-19T08:25:50.957Z,22.55999947
2022-08-19T08:26:52.182Z,22.56999969
2022-08-19T08:26:57.071Z,22.56999969
2022-08-19T08:27:48.747Z,22.62999916
2022-08-19T08:27:53.854Z,22.62999916
2022-08-19T08:28:48.031Z,22.72999954
2022-08-19T08:29:42.157Z,22.81999969
2022-08-19T08:30:41.192Z,22.87999916
2022-08-19T08:31:43.000Z,22.88999939
2022-08-19T08:32:35.860Z,22.93000031
2022-08-19T08:33:35.227Z,22.98999977
2022-08-19T08:34:33.842Z,23.02000046
2022-08-19T08:35:29.307Z,23.06999969
2022-08-19T08:37:24.663Z,23.10000038
2022-08-19T08:38:24.801Z,23.12000084
2022-08-19T08:40:11.282Z,23.31999969
2022-08-19T08:40:13.320Z,23.31999969
2022-08-19T08:41:35.208Z,23.53000069
2022-08-19T08:42:17.635Z,23.63999939
2022-08-19T08:43:12.441Z,23.68000031
2022-08-19T08:44:17.276Z,23.70000076
2022-08-19T08:44:17.399Z,23.70000076
2022-08-19T08:45:08.271Z,23.68000031
2022-08-19T08:46:07.497Z,23.63999939
2022-08-19T08:48:01.189Z,23.62000084
2022-08-19T08:48:55.887Z,23.61000061
2022-08-19T08:49:55.437Z,23.60000038
2022-08-19T08:50:50.808Z,23.60000038
2022-08-19T08:52:44.445Z,23.55999947
2022-08-19T08:53:44.162Z,23.57999992
2022-08-19T08:54:39.493Z,23.59000015
2022-08-19T08:55:38.380Z,23.60000038
2022-08-19T08:57:36.931Z,23.62000084
2022-08-19T08:57:41.095Z,23.62000084
2022-08-19T08:58:32.926Z,23.65999985
2022-08-19T08:59:25.406Z,23.71999931
2022-08-19T09:00:25.193Z,23.77000046
2022-08-19T09:01:20.494Z,23.76000023
2022-08-19T09:02:19.901Z,23.79999924
2022-08-19T09:03:14.989Z,23.82999992
2022-08-19T09:04:17.516Z,23.86000061
2022-08-19T09:05:09.974Z,23.88999939
2022-08-19T09:05:16.423Z,23.88999939
2022-08-19T09:06:11.858Z,23.90999985
2022-08-19T09:08:07.574Z,23.97999954
2022-08-19T09:08:59.798Z,23.98999977
2022-08-19T09:10:02.103Z,24
2022-08-19T09:10:55.174Z,24.01000023
2022-08-19T09:11:53.961Z,24
2022-08-19T09:12:49.220Z,24.02000046
2022-08-19T09:13:45.845Z,24.02000046
2022-08-19T09:14:51.761Z,24.02000046
2022-08-19T09:14:52.644Z,24.02000046
2022-08-19T09:15:42.045Z,24.02000046
2022-08-19T09:17:36.548Z,24.04999924
2022-08-19T09:18:35.810Z,24.04000092
2022-08-19T09:19:33.032Z,24.04000092
2022-08-19T09:20:28.230Z,24.03000069
2022-08-19T09:22:25.570Z,24
2022-08-19T09:22:27.330Z,24
2022-08-19T09:23:26.966Z,24.02000046
2022-08-19T09:23:27.032Z,24.02000046
2022-08-19T09:23:37.519Z,24.01000023
2022-08-19T09:24:32.789Z,24.04000092
2022-08-19T09:25:29.489Z,24.07999992
2022-08-19T09:26:48.614Z,24.05999947
2022-08-19T09:26:52.378Z,24.05999947
2022-08-19T09:26:52.587Z,24.05999947
2022-08-19T09:27:22.484Z,24.10000038
2022-08-19T09:27:42.264Z,24.10000038
2022-08-19T09:27:42.295Z,24.10000038
2022-08-19T09:28:26.900Z,24.15999985
2022-08-19T09:29:17.725Z,24.21999931
2022-08-19T09:30:14.966Z,24.21999931
2022-08-19T09:31:14.363Z,24.18000031
2022-08-19T09:33:08.979Z,24.15999985
2022-08-19T09:34:04.410Z,24.15999985
2022-08-19T09:35:03.826Z,24.17000008
2022-08-19T09:35:08.952Z,24.17000008
2022-08-19T09:36:01.900Z,24.20000076
2022-08-19T09:36:08.418Z,24.20000076
2022-08-19T09:37:47.084Z,24.29000092
2022-08-19T09:38:26.799Z,24.36000061
2022-08-19T09:39:24.702Z,24.37999916
2022-08-19T09:40:22.797Z,24.37999916
2022-08-19T09:41:22.567Z,24.31999969
2022-08-19T09:42:29.870Z,24.29999924
2022-08-19T09:42:30.120Z,24.29999924
2022-08-19T09:43:27.793Z,24.30999947
2022-08-19T09:43:32.993Z,24.30999947
2022-08-19T09:43:33.229Z,24.30999947
2022-08-19T09:44:18.118Z,24.35000038
2022-08-19T09:45:13.046Z,24.39999962
2022-08-19T09:46:15.756Z,24.37000084
2022-08-19T09:48:09.815Z,24.38999939
2022-08-19T09:49:06.246Z,24.39999962
2022-08-19T09:50:05.906Z,24.40999985
2022-08-19T09:51:01.243Z,24.40999985
2022-08-19T09:52:01.302Z,24.37000084
2022-08-19T09:52:57.862Z,24.37000084
2022-08-19T09:53:56.746Z,24.37000084
2022-08-19T09:54:52.143Z,24.36000061
2022-08-19T09:55:52.481Z,24.37000084
2022-08-19T09:57:48.420Z,24.35000038
2022-08-19T09:58:44.552Z,24.37000084
2022-08-19T09:59:41.856Z,24.37000084
2022-08-19T10:00:41.974Z,24.38999939
2022-08-19T10:02:37.820Z,24.40999985
2022-08-19T10:03:33.396Z,24.43000031
2022-08-19T10:04:31.264Z,24.45999908
2022-08-19T10:05:31.546Z,24.46999931
2022-08-19T10:06:40.660Z,24.45000076
2022-08-19T10:06:45.822Z,24.45000076
2022-08-19T10:06:46.518Z,24.45000076
2022-08-19T10:07:36.365Z,24.48999977
2022-08-19T10:07:36.488Z,24.48999977
2022-08-19T10:08:27.395Z,24.55999947
2022-08-19T10:09:34.042Z,24.61000061
2022-08-19T10:09:34.525Z,24.61000061
2022-08-19T10:10:21.332Z,24.64999962
2022-08-19T10:11:28.709Z,24.63999939
2022-08-19T10:11:28.747Z,24.63999939
2022-08-19T10:11:39.482Z,24.63999939
2022-08-19T10:13:15.481Z,24.70999908
2022-08-19T10:14:15.181Z,24.70999908
2022-08-19T10:15:10.427Z,24.68000031
2022-08-19T10:16:08.349Z,24.64999962
2022-08-19T10:17:19.125Z,24.62000084
2022-08-19T10:17:19.246Z,24.62000084
2022-08-19T10:17:21.406Z,24.62000084
2022-08-19T10:18:07.455Z,24.63999939
2022-08-19T10:19:03.683Z,24.69000053
2022-08-19T10:20:03.243Z,24.71999931
2022-08-19T10:21:41.078Z,24.71999931
2022-08-19T10:22:20.618Z,24.76000023
2022-08-19T10:23:18.364Z,24.79000092
2022-08-19T10:24:18.685Z,24.79000092